Карточка аэропорта URSS

Внимание!
Информация на этой странице в стадии наполнения.
Если вы не увидели какой-то информации, или заметили неточность - пожалуйста сообщите нам!
Спасибо!
Команда RU-STAFF
Название аэропортаСочи
Название аэропорта (англ.)Sochi
Превышение89 ft. (27.1 m.)
Координаты43°26.634', 39°56.55'
Высота перехода13000 ft
Эшелон переходаFL140 (QNH >= 1013); FL150 (QNH 977-1012); FL160 (QNH < 977)
Коды ответчика1060-1077
Зона ОрВДРостов-на-Дону РПИ (URRV)
Данные METARURSS 090900Z 13004MPS 9999 FEW035 SCT080 08/M00 Q1028 WS ALL RWY R02/010070 R06/010070 NOSIG RMK R06/14004MPS MT OBSC QFE770
Проноз погоды (TAF)URSS 090755Z 0909/1009 13006G12MPS 9999 FEW016 SCT030CB BKN100 BECMG 0916/0917 05004G09MPS SCT016 BKN030CB OVC100 TEMPO 0917/1006 VRB08G14MPS 1000 TSRAGS BKN006 BKN020CB OVC100 FM100600 14006G12MPS 6000 -SHRA BKN016 BKN020CB OVC100 TEMPO 1006/1009 VRB09G14MPS 1000 TSRASN BKN006 BKN020CB OVC100
NOTAMshow/hide NOTAM
AWOS   TABLE

Информация о ВПП

ВПП Длина ВПП (м.) Покрытие Курс ВПП Частота ILS
022500Цементобетон22110.5
062890Цементобетон58111.1
202500Цементобетон202 
242890Цементобетон238 

Диспетчерские позиции

Позывной Наименование органа УВД Частота
URSS_GNDСочи-Руление119.000
URSS_FM1119.000
URSS_R_APPСочи-Круг119.700
URSS_TWRСочи-Старт121.200
URSS_APPСочи-Подход124.600
URSS_DELСочи-Деливери132.700



Спутниковое изображение